x

Prince Edward Pt (45135) Wave Buoy

9:00am - Wed 30th Jul 2014 All times are CDT. -5 hours from GMT.

  • Sig Wave height 1.6ft
  • Peak Period 4s
  • Wind
    13mph
  • Sea Temp 67°f
  • Air Temp 64°f
  • Sea Pressure 1015.1mb
  • Prince Edward Pt
  • Prince Edward Pt

More Historic Weather Station data

Upgrade to MSW Pro to gain access to the past 30 days of data for over 8000 Wavebouys and Weather Stations around the globe.

Join Pro

Comparision Forecast

View Surf forecast
   
Wed 07/30 9:00am 1.6ft 4s 13
mph
1015.1mb 67f 64f
8:00am 2ft 4s 13 16 mph 1014.8mb 67f 64f
7:00am 2ft 4s 16 18 mph 1014.8mb 67f 64f
6:00am 1.6ft 4s 16 18 mph 1014.7mb 67f 64f
5:00am 1.6ft 4s 9 13 mph 1014.5mb 67f 65f
4:00am 1.6ft 4s 9 11 mph 1014.2mb 67f 65f
3:00am 1.6ft 4s 9 11 mph 1014mb 67f 65f
2:00am 2ft 3s 9 11 mph 1014mb 67f 65f
1:00am 1.6ft 3s 16 18 mph 1014mb 67f 66f
12:00am 1.3ft 3s 16 18 mph 1014mb 67f 67f
Tue 07/29 11:00pm 1ft 3s 13 16 mph 1014.2mb 67f 66f
10:00pm 1ft 3s 13 16 mph 1014.2mb 67f 67f
9:00pm 1.3ft 4s 11 13 mph 1014.5mb 67f 67f
8:00pm 1.3ft 4s 9 11 mph 1014.4mb 67f 67f
7:00pm 1.6ft 4s 11 13 mph 1014.1mb 67f 67f
6:00pm 2ft 3s 16 18 mph 1013.6mb 68f 67f
5:00pm 2ft 4s 16 18 mph 1013.2mb 68f 67f
4:00pm 2ft 4s 16 18 mph 1013.2mb 68f 66f
3:00pm 2ft 4s 18 20 mph 1013mb 68f 66f
2:00pm 1.6ft 3s 13 16 mph 1013mb 68f 65f
1:00pm 1.3ft 2s 16 18 mph 1012.8mb 68f 64f
12:00pm 1.3ft 4s 13 18 mph 1012.9mb 68f 64f
11:00am 1.3ft 4s 9
mph
1012.9mb 68f 64f
10:00am 1.3ft 5s 4 7 mph 1012.6mb 68f 64f
9:00am 1.3ft 3s 9
mph
1012.3mb 68f 62f
8:00am 1.3ft 3s 9 13 mph 1011.9mb 68f 61f
7:00am 1.3ft 3s 13 16 mph 1011.2mb 67f 62f
6:00am 1.3ft 3s 13 16 mph 1010.9mb 67f 61f
5:00am 1.3ft 2s 16 18 mph 1010.1mb 67f 61f
4:00am 1.6ft 2s 16 18 mph 1009.7mb 67f 61f
3:00am 1.3ft 3s 16 20 mph 1009.1mb 67f 62f
2:00am 1.6ft 4s 16 20 mph 1008.9mb 67f 62f
1:00am 1.6ft 5s 18 22 mph 1008.9mb 67f 62f
12:00am 1.6ft 3s 18 22 mph 1008.7mb 67f 63f
Mon 07/28 11:00pm 1.3ft 3s 18 20 mph 1008.6mb 67f 64f
10:00pm 1.3ft 3s 16 18 mph 1008.8mb 67f 64f
9:00pm 1.6ft 3s 16 18 mph 1008.6mb 67f 64f
8:00pm 1.3ft 4s 18 20 mph 1008.1mb 67f 65f
7:00pm 1.3ft 4s 9 11 mph 1007.7mb 67f 65f
6:00pm 2ft 4s 9 11 mph 1007.3mb 68f 64f
5:00pm 2.5ft 4s 13 18 mph 1006.7mb 68f 64f
4:00pm 3ft 4s 18 20 mph 1006mb 68f 63f
3:00pm 3.5ft 5s 22 27 mph 1005.1mb 68f 62f
2:00pm 4ft 5s 25 29 mph 1004.3mb 68f 61f
1:00pm 4ft 5s 27 31 mph 1003.4mb 68f 62f
12:00pm 4.5ft 5s 27 34 mph 1002.9mb 68f 62f
11:00am 4.5ft 5s 29 34 mph 1002.3mb 68f 62f
10:00am 4.5ft 5s 29 34 mph 1001.8mb 68f 63f
9:00am 4.5ft 5s 29 36 mph 1001.3mb 68f 64f
8:00am 4.5ft 5s 29 36 mph 1000.8mb 68f 64f
7:00am 4.5ft 4s 29 34 mph 1000.7mb 68f 64f
6:00am 3.5ft 4s 31 36 mph - 69f 65f
5:00am 3ft 4s 27 31 mph 1001mb 69f 65f
4:00am 2.5ft 4s 22 27 mph 1001.6mb 69f 66f
3:00am 2.5ft 4s 18
mph
1002.1mb 69f 67f
2:00am 2ft 4s 16 18 mph 1002.4mb 69f 68f
1:00am 2ft 3s 13 18 mph 1002.5mb 69f 69f
12:00am 1ft 3s 20 22 mph 1001.3mb 69f 69f
Sun 07/27 11:00pm 0.7ft 2s 13 16 mph 1002.3mb 69f 70f
10:00pm 0.7ft 4s 11 13 mph 1003.2mb 69f 70f
9:00pm 0.7ft 4s 2 7 mph 1003.3mb 69f 74f
8:00pm 0.7ft 4s 2
mph
1003.3mb 69f 72f
7:00pm 1ft 4s 4 7 mph 1003.3mb 70f 71f
6:00pm 1.6ft 4s 7 9 mph 1004.1mb 70f 73f
5:00pm 2ft 4s 9
mph
1003.7mb 70f 72f
4:00pm  -   -  13
mph
- - 72f
3:00pm 2.5ft 4s 18 20 mph 1004mb 69f 71f
2:00pm 2ft 4s 18 22 mph 1004.3mb 69f 70f
1:00pm 2ft 3s 18 22 mph 1004.7mb 69f 70f
12:00pm 1.6ft 3s 18 20 mph 1004.7mb 69f 69f
11:00am 1.3ft 3s 18 22 mph 1004.9mb 69f 69f
10:00am 1ft 3s 13 16 mph 1004.8mb 69f 69f
9:00am 1ft 2s 11 13 mph 1004.8mb 69f 69f
8:00am 1ft 3s 11 13 mph 1004.8mb 69f 68f
7:00am 1ft 3s 11 13 mph 1004.9mb 69f 68f
6:00am  -   -  11
mph
1004.6mb - 67f
5:00am 1.3ft 4s 9 11 mph 1005mb 69f 66f
4:00am 1.3ft 3s 7 9 mph 1004.8mb 69f 67f
3:00am 1.3ft 3s 16 18 mph 1005.2mb 69f 69f
2:00am 1ft 3s 18 22 mph 1004.8mb 69f 71f
1:00am 0.7ft 2s 16 18 mph 1005mb 70f 71f
12:00am 0.3ft 3s 11 13 mph 1006.5mb 70f 71f
Sat 07/26 11:00pm 0.3ft 3s 7 9 mph 1007.5mb 70f 71f
10:00pm 0.7ft 3s 7 9 mph 1008.5mb 70f 70f
9:00pm 0.7ft 4s 4
mph
1009.4mb 70f 70f
8:00pm 0.7ft 3s 4
mph
1009.9mb 70f 70f
7:00pm 0.7ft 4s 2 4 mph 1009.7mb 70f 70f
6:00pm 0.7ft 4s 2
mph
1009.9mb 70f 70f
5:00pm 0.7ft 4s 4 7 mph 1010.2mb 70f 69f
4:00pm 1ft 4s 4 7 mph 1010.7mb 70f 69f